Fulton, AL (36446)

4:20 AM CST on December 26, 2014 (GMT -0600)
Pine Hill, AL 36769 | Change Station
CLOSE
Current Station
Personal Weather Station
Location: Pine Hill, AL
Elevation: 210 ft
Nearby Weather Stations

Elev 210 ft 31.99 °N, 87.64 °W | Updated 3 seconds ago

Clear
Clear
35.2 °F
Feels Like 35 °F
N
0.0
Wind Variable Wind from North
Gusts 0.0 mph

Today
High -- | Low -- °F
--% Chance of Precip.
Yesterday
High -- | Low -- °F
Precip. -- in
6:48 AM 4:53 PM
Waxing Crescent, 24% visible
Pressure 30.23 in
Visibility 10.0 miles
Clouds Clear
Windchill 35 °F
Dew Point 35 °F
Humidity 98%
Rainfall 0.71 in
Snow Depth Not available.
UV 0 out of 12
Pollen 1.10 out of 12
Air Quality Not available.
Flu Activity Not available.
METAR KGZH 260953Z AUTO 00000KT 10SM CLR 01/00 A3023 RMK AO2 SLP237 T00110000

More Conditions Fewer Conditions

Pressure 30.23 in
Visibility 10.0 miles
Clouds Clear
Windchill 35 °F
Dew Point 35 °F
Humidity 98%
Rainfall 0.71 in
Snow Depth Not available.
UV 0 out of 12
Pollen 1.10 out of 12
Air Quality Not available.
Flu Activity Not available.
METAR KGZH 260953Z AUTO 00000KT 10SM CLR 01/00 A3023 RMK AO2 SLP237 T00110000

More Conditions Fewer Conditions

10-Day Weather Forecast

Almanac

Astronomy

Dec. 26, 2014 Rise Set
Actual Time
Civil Twilight
Nautical Twilight
Astronomical Twilight
Moon
Length of Visible Light
Length of Day
Tomorrow will be .
, % of the Moon is Illuminated

Today's Extremes

State Highs State Lows

Community

WunderPhotos

Upload Photos

1,780,573 photos uploaded!

WunderBlogs® & News

Nearby

Air Quality

  Air Quality AQ Index Pollutant
Not available.

Snow Depth

Station Depth Elevation

Earthquake Activity

City Distance Mag. Time & Date
Minimum magnitude displayed is 2.5.

Coastal Water Temperatures

Place Temperature

Nearby Weather Stations